This is the latest recevied weather packets stored in our database for station/object KA6AKH-13. If no packets are shown the sender has not sent any weather packets the latest 10 day(s).
| Time | Temp. | Humidity | Pressure | Rain* | Wind** | Luminosity | Snow |
|---|---|---|---|---|---|---|---|
| 1788040771 | 82° F | 53% | 766.4 mmHg | 0 in | - | - | - |
| 1788040171 | 82° F | 54% | 766.5 mmHg | 0 in | - | - | - |
| 1788038942 | 83° F | 50% | 766.5 mmHg | 0 in | - | - | - |
| 1788037742 | 84° F | 49% | 766.4 mmHg | 0 in | - | - | - |
| 1788037142 | 85° F | 47% | 766.5 mmHg | 0 in | - | - | - |
| 1788034027 | 87° F | 43% | 767.2 mmHg | 0 in | - | - | - |
| 1788033512 | 88° F | 42% | 767.1 mmHg | 0 in | - | - | - |
| 1788032912 | 87° F | 43% | 767.2 mmHg | 0 in | - | - | - |
| 1788032312 | 87° F | 43% | 767.2 mmHg | 0 in | - | - | - |
| 1788029281 | 86° F | 42% | 767.5 mmHg | 0 in | - | - | - |
| 1788028682 | 85° F | 43% | 767.5 mmHg | 0 in | - | - | - |
| 1788028082 | 85° F | 41% | 767.6 mmHg | 0 in | - | - | - |
| 1788027481 | 86° F | 42% | 767.7 mmHg | 0 in | - | - | - |
| 1788026281 | 83° F | 46% | 767.8 mmHg | 0 in | - | - | - |
| 1788025681 | 83° F | 45% | 767.9 mmHg | 0 in | - | - | - |
| 1788023881 | 83° F | 46% | 768.1 mmHg | 0 in | - | - | - |
| 1788023281 | 82° F | 46% | 768.1 mmHg | 0 in | - | - | - |
| 1788022681 | 81° F | 48% | 768.3 mmHg | 0 in | - | - | - |
| 1788020281 | 79° F | 46% | 768.3 mmHg | 0 in | - | - | - |
| 1788019680 | 79° F | 47% | 768.4 mmHg | 0 in | - | - | - |
| 1788018481 | 78° F | 48% | 768.4 mmHg | 0 in | - | - | - |
| 1788016681 | 77° F | 54% | 768.2 mmHg | 0 in | - | - | - |
| 1788014281 | 76° F | 56% | 768 mmHg | 0 in | - | - | - |
| 1788013681 | 75° F | 57% | 768 mmHg | 0 in | - | - | - |
| 1788013081 | 75° F | 57% | 768.1 mmHg | 0 in | - | - | - |
* Rain latest hour (hover to see other rain measurements)
** Current wind speed in m/s (hover to see current wind gust speed)